Flight Track Log - Related Links

Times and Time Zones

All times are in EDT time to prevent confusion due to time zone crossing. See the WWI24 flight status page for this flight to view local times or setup timezone preferences in your user account.

Time Position Orientation Groundspeed Altitude Reporting Facility
EDT Latitude Longitude Course Direction KTS MPH feet Rate Location/Type
Fri 06:18:13 PM 34.4275 -119.9200 271° West 209 241 3,800  Level Los Angeles Center
Fri 06:18:56 PM 34.3969 -119.9542 223° Southwest 222 255 6,300 3,238 Climbing Los Angeles Center
Fri 06:19:16 PM 34.3794 -119.9481 164° South 248 285 7,200 1,317 Climbing Los Angeles Center
Fri 06:20:18 PM 34.3225 -119.9131 153° Southeast 235 270 8,100 1,306 Climbing Los Angeles Center
Fri 06:21:20 PM 34.3278 -119.8267 86° East 250 288 9,900 1,403 Climbing Los Angeles Center
Fri 06:22:22 PM 34.3303 -119.7264 88° East 278 320 11,000 532 Climbing Los Angeles Center
Fri 06:23:24 PM 34.3361 -119.5831 87° East 331 381 11,000  Level Los Angeles Center
Fri 06:24:26 PM 34.3414 -119.4672 87° East 344 396 11,000 -48 Level Los Angeles Center
Fri 06:25:28 PM 34.3453 -119.3497 88° East 349 402 10,900 -194 Descending Los Angeles Center
Fri 06:26:30 PM 34.3472 -119.2375 89° East 336 387 10,600 -871 Descending Los Angeles Center
Fri 06:27:32 PM 34.3508 -119.1392 87° East 300 345 9,100 -774 Descending Los Angeles Center
Fri 06:28:34 PM 34.3536 -119.0461 88° East 283 326 9,000 -48 Descending Los Angeles Center
Fri 06:29:36 PM 34.3561 -118.9322 88° East 283 326 9,000 -629 Level Los Angeles Center
Fri 06:30:38 PM 34.3711 -118.8394 79° East 279 321 7,700 -1,296 Descending Los Angeles Center
Fri 06:31:41 PM 34.4003 -118.7544 67° East 274 315 6,300 -1,296 Descending Los Angeles Center
Fri 06:32:43 PM 34.4281 -118.6697 68° East 268 308 5,000 -574 Descending Los Angeles Center
Fri 06:33:57 PM 34.4550 -118.5850 69° East 267 307 5,000  Level Los Angeles Center
Fri 06:34:59 PM 34.4308 -118.5075 111° Southeast 221 254 5,000 -97 Level Los Angeles Center
Fri 06:36:01 PM 34.3714 -118.5081 180° South 177 204 4,800 -690 Descending Los Angeles Center
Fri 06:36:52 PM 34.3333 -118.5000 170° South 175 201 3,700 -1,232 Descending Southern California TRACON
Fri 06:37:53 PM 34.2833 -118.5000 180° South 166 191 2,500 -1,091 Descending Southern California TRACON
Fri 06:38:53 PM 34.2333 -118.5000 180° South 139 160 1,500 -1,000 Descending Southern California TRACON
Fri 06:41:00 PM 34.2098 -118.4900 180° South  Level Estimated
Fri 06:48:00 PM 34.2098 -118.4900 180° South  Level Estimated

Login

Don't have an account? Register now (free) for customized features, flight alerts, and more!